sensor_id;sensor_type;location;lat;lon;timestamp;P1;durP1;ratioP1;P2;durP2;ratioP2
23718;SDS011;43322;52.230;5.702;2023-11-21T00:01:54;23.45;;;13.77;;
23718;SDS011;43322;52.230;5.702;2023-11-21T00:04:22;26.52;;;14.13;;
23718;SDS011;43322;52.230;5.702;2023-11-21T00:06:50;23.80;;;13.75;;
23718;SDS011;43322;52.230;5.702;2023-11-21T00:09:17;25.35;;;12.95;;
23718;SDS011;43322;52.230;5.702;2023-11-21T00:11:44;20.23;;;11.55;;
23718;SDS011;43322;52.230;5.702;2023-11-21T00:14:11;21.40;;;13.20;;
23718;SDS011;43322;52.230;5.702;2023-11-21T00:16:40;26.63;;;13.20;;
23718;SDS011;43322;52.230;5.702;2023-11-21T00:19:06;21.70;;;12.50;;
23718;SDS011;43322;52.230;5.702;2023-11-21T00:21:33;19.60;;;11.68;;
23718;SDS011;43322;52.230;5.702;2023-11-21T00:24:01;23.08;;;12.73;;
23718;SDS011;43322;52.230;5.702;2023-11-21T00:26:28;21.90;;;13.48;;
23718;SDS011;43322;52.230;5.702;2023-11-21T00:28:56;26.67;;;14.75;;
23718;SDS011;43322;52.230;5.702;2023-11-21T00:31:22;23.88;;;14.23;;
23718;SDS011;43322;52.230;5.702;2023-11-21T00:33:49;36.33;;;17.20;;
23718;SDS011;43322;52.230;5.702;2023-11-21T00:36:16;32.47;;;18.38;;
23718;SDS011;43322;52.230;5.702;2023-11-21T00:38:42;30.67;;;18.33;;
23718;SDS011;43322;52.230;5.702;2023-11-21T00:41:09;42.42;;;16.63;;
23718;SDS011;43322;52.230;5.702;2023-11-21T00:43:36;30.25;;;17.90;;
23718;SDS011;43322;52.230;5.702;2023-11-21T00:46:03;34.63;;;18.60;;
23718;SDS011;43322;52.230;5.702;2023-11-21T00:48:32;32.42;;;17.55;;
23718;SDS011;43322;52.230;5.702;2023-11-21T00:50:59;33.45;;;18.67;;
23718;SDS011;43322;52.230;5.702;2023-11-21T00:53:25;35.50;;;18.40;;
23718;SDS011;43322;52.230;5.702;2023-11-21T00:55:52;36.78;;;19.33;;
23718;SDS011;43322;52.230;5.702;2023-11-21T00:58:24;37.47;;;18.38;;
23718;SDS011;43322;52.230;5.702;2023-11-21T01:00:51;32.53;;;17.75;;
23718;SDS011;43322;52.230;5.702;2023-11-21T01:03:17;33.55;;;16.80;;
23718;SDS011;43322;52.230;5.702;2023-11-21T01:05:44;29.75;;;17.77;;
23718;SDS011;43322;52.230;5.702;2023-11-21T01:08:11;26.50;;;17.25;;
23718;SDS011;43322;52.230;5.702;2023-11-21T01:10:38;26.05;;;15.75;;
23718;SDS011;43322;52.230;5.702;2023-11-21T01:13:05;23.25;;;15.32;;
23718;SDS011;43322;52.230;5.702;2023-11-21T01:15:33;30.88;;;16.75;;
23718;SDS011;43322;52.230;5.702;2023-11-21T01:18:00;29.45;;;16.33;;
23718;SDS011;43322;52.230;5.702;2023-11-21T01:20:28;23.35;;;15.02;;
23718;SDS011;43322;52.230;5.702;2023-11-21T01:22:55;29.13;;;17.45;;
23718;SDS011;43322;52.230;5.702;2023-11-21T01:25:21;26.42;;;16.10;;
23718;SDS011;43322;52.230;5.702;2023-11-21T01:27:48;35.33;;;17.70;;
23718;SDS011;43322;52.230;5.702;2023-11-21T01:30:15;32.08;;;17.55;;
23718;SDS011;43322;52.230;5.702;2023-11-21T01:32:43;29.77;;;16.45;;
23718;SDS011;43322;52.230;5.702;2023-11-21T01:35:10;32.08;;;16.95;;
23718;SDS011;43322;52.230;5.702;2023-11-21T01:37:36;28.73;;;16.33;;
23718;SDS011;43322;52.230;5.702;2023-11-21T01:40:03;24.45;;;15.50;;
23718;SDS011;43322;52.230;5.702;2023-11-21T01:42:34;23.40;;;15.07;;
23718;SDS011;43322;52.230;5.702;2023-11-21T01:45:01;31.15;;;18.80;;
23718;SDS011;43322;52.230;5.702;2023-11-21T01:47:30;39.28;;;19.92;;
23718;SDS011;43322;52.230;5.702;2023-11-21T01:49:58;31.60;;;18.20;;
23718;SDS011;43322;52.230;5.702;2023-11-21T01:52:25;30.58;;;18.67;;
23718;SDS011;43322;52.230;5.702;2023-11-21T01:54:52;30.77;;;19.02;;
23718;SDS011;43322;52.230;5.702;2023-11-21T01:57:19;30.95;;;18.58;;
23718;SDS011;43322;52.230;5.702;2023-11-21T01:59:46;31.48;;;19.15;;
23718;SDS011;43322;52.230;5.702;2023-11-21T02:02:15;27.50;;;18.42;;
23718;SDS011;43322;52.230;5.702;2023-11-21T02:04:42;28.35;;;18.13;;
23718;SDS011;43322;52.230;5.702;2023-11-21T02:07:10;30.00;;;18.92;;
23718;SDS011;43322;52.230;5.702;2023-11-21T02:09:37;33.80;;;20.38;;
23718;SDS011;43322;52.230;5.702;2023-11-21T02:12:07;30.23;;;18.58;;
23718;SDS011;43322;52.230;5.702;2023-11-21T02:14:35;31.55;;;19.88;;
23718;SDS011;43322;52.230;5.702;2023-11-21T02:17:02;34.78;;;20.13;;
23718;SDS011;43322;52.230;5.702;2023-11-21T02:19:29;28.52;;;18.52;;
23718;SDS011;43322;52.230;5.702;2023-11-21T02:21:57;29.63;;;18.67;;
23718;SDS011;43322;52.230;5.702;2023-11-21T02:24:29;31.23;;;17.67;;
23718;SDS011;43322;52.230;5.702;2023-11-21T02:26:57;26.60;;;19.35;;
23718;SDS011;43322;52.230;5.702;2023-11-21T02:29:23;27.27;;;18.48;;
23718;SDS011;43322;52.230;5.702;2023-11-21T02:31:53;30.88;;;19.20;;
23718;SDS011;43322;52.230;5.702;2023-11-21T02:34:21;28.92;;;18.60;;
23718;SDS011;43322;52.230;5.702;2023-11-21T02:36:48;31.35;;;19.45;;
23718;SDS011;43322;52.230;5.702;2023-11-21T02:39:16;29.23;;;17.92;;
23718;SDS011;43322;52.230;5.702;2023-11-21T02:41:48;28.88;;;18.52;;
23718;SDS011;43322;52.230;5.702;2023-11-21T02:44:15;33.22;;;19.20;;
23718;SDS011;43322;52.230;5.702;2023-11-21T02:46:41;29.38;;;19.05;;
23718;SDS011;43322;52.230;5.702;2023-11-21T02:49:08;28.52;;;18.83;;
23718;SDS011;43322;52.230;5.702;2023-11-21T02:51:35;31.48;;;19.02;;
23718;SDS011;43322;52.230;5.702;2023-11-21T02:54:03;24.55;;;17.20;;
23718;SDS011;43322;52.230;5.702;2023-11-21T02:56:31;24.92;;;17.23;;
23718;SDS011;43322;52.230;5.702;2023-11-21T02:59:00;25.83;;;17.45;;
23718;SDS011;43322;52.230;5.702;2023-11-21T03:01:27;33.78;;;17.15;;
23718;SDS011;43322;52.230;5.702;2023-11-21T03:03:54;25.73;;;16.95;;
23718;SDS011;43322;52.230;5.702;2023-11-21T03:06:21;25.95;;;17.40;;
23718;SDS011;43322;52.230;5.702;2023-11-21T03:08:48;27.50;;;16.33;;
23718;SDS011;43322;52.230;5.702;2023-11-21T03:11:15;23.85;;;15.93;;
23718;SDS011;43322;52.230;5.702;2023-11-21T03:13:42;24.67;;;15.75;;
23718;SDS011;43322;52.230;5.702;2023-11-21T03:16:11;27.13;;;16.85;;
23718;SDS011;43322;52.230;5.702;2023-11-21T03:18:38;28.00;;;17.13;;
23718;SDS011;43322;52.230;5.702;2023-11-21T03:21:05;23.75;;;16.10;;
23718;SDS011;43322;52.230;5.702;2023-11-21T03:23:33;29.02;;;16.98;;
23718;SDS011;43322;52.230;5.702;2023-11-21T03:26:00;29.10;;;17.00;;
23718;SDS011;43322;52.230;5.702;2023-11-21T03:28:27;27.42;;;17.48;;
23718;SDS011;43322;52.230;5.702;2023-11-21T03:30:55;32.67;;;18.08;;
23718;SDS011;43322;52.230;5.702;2023-11-21T03:33:23;28.70;;;16.85;;
23718;SDS011;43322;52.230;5.702;2023-11-21T03:35:50;28.25;;;17.05;;
23718;SDS011;43322;52.230;5.702;2023-11-21T03:38:18;36.05;;;17.98;;
23718;SDS011;43322;52.230;5.702;2023-11-21T03:40:45;26.65;;;17.08;;
23718;SDS011;43322;52.230;5.702;2023-11-21T03:43:12;26.70;;;15.73;;
23718;SDS011;43322;52.230;5.702;2023-11-21T03:45:39;28.73;;;17.73;;
23718;SDS011;43322;52.230;5.702;2023-11-21T03:48:06;25.05;;;16.55;;
23718;SDS011;43322;52.230;5.702;2023-11-21T03:50:35;28.05;;;17.58;;
23718;SDS011;43322;52.230;5.702;2023-11-21T03:53:01;21.40;;;15.60;;
23718;SDS011;43322;52.230;5.702;2023-11-21T03:55:28;26.20;;;16.33;;
23718;SDS011;43322;52.230;5.702;2023-11-21T03:57:56;26.90;;;15.73;;
23718;SDS011;43322;52.230;5.702;2023-11-21T04:00:23;27.30;;;15.95;;
23718;SDS011;43322;52.230;5.702;2023-11-21T04:02:51;35.25;;;17.92;;
23718;SDS011;43322;52.230;5.702;2023-11-21T04:05:19;31.13;;;17.35;;
23718;SDS011;43322;52.230;5.702;2023-11-21T04:07:47;34.00;;;17.83;;
23718;SDS011;43322;52.230;5.702;2023-11-21T04:10:14;25.35;;;16.20;;
23718;SDS011;43322;52.230;5.702;2023-11-21T04:12:41;25.80;;;16.38;;
23718;SDS011;43322;52.230;5.702;2023-11-21T04:15:08;39.35;;;18.92;;
23718;SDS011;43322;52.230;5.702;2023-11-21T04:17:36;32.55;;;18.17;;
23718;SDS011;43322;52.230;5.702;2023-11-21T04:20:02;33.25;;;19.08;;
23718;SDS011;43322;52.230;5.702;2023-11-21T04:22:33;30.75;;;17.00;;
23718;SDS011;43322;52.230;5.702;2023-11-21T04:25:01;32.50;;;17.38;;
23718;SDS011;43322;52.230;5.702;2023-11-21T04:27:28;35.53;;;18.00;;
23718;SDS011;43322;52.230;5.702;2023-11-21T04:29:54;32.88;;;17.23;;
23718;SDS011;43322;52.230;5.702;2023-11-21T04:32:21;33.25;;;17.20;;
23718;SDS011;43322;52.230;5.702;2023-11-21T04:34:48;34.70;;;16.90;;
23718;SDS011;43322;52.230;5.702;2023-11-21T04:37:14;34.55;;;16.05;;
23718;SDS011;43322;52.230;5.702;2023-11-21T04:39:41;31.15;;;17.35;;
23718;SDS011;43322;52.230;5.702;2023-11-21T04:42:09;32.47;;;17.42;;
23718;SDS011;43322;52.230;5.702;2023-11-21T04:44:37;36.60;;;17.23;;
23718;SDS011;43322;52.230;5.702;2023-11-21T04:47:06;34.90;;;17.85;;
23718;SDS011;43322;52.230;5.702;2023-11-21T04:49:32;31.27;;;17.20;;
23718;SDS011;43322;52.230;5.702;2023-11-21T04:51:59;32.20;;;17.80;;
23718;SDS011;43322;52.230;5.702;2023-11-21T04:54:26;31.98;;;17.98;;
23718;SDS011;43322;52.230;5.702;2023-11-21T04:56:53;34.35;;;17.48;;
23718;SDS011;43322;52.230;5.702;2023-11-21T04:59:21;36.25;;;18.20;;
23718;SDS011;43322;52.230;5.702;2023-11-21T05:01:49;35.60;;;17.42;;
23718;SDS011;43322;52.230;5.702;2023-11-21T05:04:16;36.92;;;17.40;;
23718;SDS011;43322;52.230;5.702;2023-11-21T05:06:43;36.10;;;18.25;;
23718;SDS011;43322;52.230;5.702;2023-11-21T05:09:09;33.10;;;17.42;;
23718;SDS011;43322;52.230;5.702;2023-11-21T05:11:37;32.58;;;18.48;;
23718;SDS011;43322;52.230;5.702;2023-11-21T05:14:05;34.63;;;18.08;;
23718;SDS011;43322;52.230;5.702;2023-11-21T05:16:35;38.63;;;17.55;;
23718;SDS011;43322;52.230;5.702;2023-11-21T05:19:01;33.33;;;18.58;;
23718;SDS011;43322;52.230;5.702;2023-11-21T05:21:29;35.97;;;18.13;;
23718;SDS011;43322;52.230;5.702;2023-11-21T05:23:56;39.50;;;19.20;;
23718;SDS011;43322;52.230;5.702;2023-11-21T05:26:23;38.03;;;18.60;;
23718;SDS011;43322;52.230;5.702;2023-11-21T05:28:50;32.28;;;17.50;;
23718;SDS011;43322;52.230;5.702;2023-11-21T05:31:16;42.92;;;20.20;;
23718;SDS011;43322;52.230;5.702;2023-11-21T05:33:44;41.67;;;19.83;;
23718;SDS011;43322;52.230;5.702;2023-11-21T05:36:11;48.47;;;18.98;;
23718;SDS011;43322;52.230;5.702;2023-11-21T05:38:38;42.42;;;18.77;;
23718;SDS011;43322;52.230;5.702;2023-11-21T05:41:04;46.28;;;19.65;;
23718;SDS011;43322;52.230;5.702;2023-11-21T05:43:31;37.58;;;19.00;;
23718;SDS011;43322;52.230;5.702;2023-11-21T05:46:00;51.88;;;20.98;;
23718;SDS011;43322;52.230;5.702;2023-11-21T05:48:27;48.33;;;20.95;;
23718;SDS011;43322;52.230;5.702;2023-11-21T05:50:55;48.42;;;22.10;;
23718;SDS011;43322;52.230;5.702;2023-11-21T05:53:21;47.78;;;21.30;;
23718;SDS011;43322;52.230;5.702;2023-11-21T05:55:48;47.60;;;22.23;;
23718;SDS011;43322;52.230;5.702;2023-11-21T05:58:15;50.63;;;21.02;;
23718;SDS011;43322;52.230;5.702;2023-11-21T06:00:41;37.35;;;19.20;;
23718;SDS011;43322;52.230;5.702;2023-11-21T06:03:08;51.40;;;24.20;;
23718;SDS011;43322;52.230;5.702;2023-11-21T06:05:35;62.50;;;25.08;;
23718;SDS011;43322;52.230;5.702;2023-11-21T06:08:03;54.97;;;23.23;;
23718;SDS011;43322;52.230;5.702;2023-11-21T06:10:31;43.80;;;21.33;;
23718;SDS011;43322;52.230;5.702;2023-11-21T06:12:59;47.03;;;21.35;;
23718;SDS011;43322;52.230;5.702;2023-11-21T06:15:25;42.47;;;21.20;;
23718;SDS011;43322;52.230;5.702;2023-11-21T06:17:52;36.95;;;21.55;;
23718;SDS011;43322;52.230;5.702;2023-11-21T06:20:19;56.28;;;23.50;;
23718;SDS011;43322;52.230;5.702;2023-11-21T06:22:47;51.58;;;24.10;;
23718;SDS011;43322;52.230;5.702;2023-11-21T06:25:17;40.75;;;20.88;;
23718;SDS011;43322;52.230;5.702;2023-11-21T06:27:44;42.45;;;22.95;;
23718;SDS011;43322;52.230;5.702;2023-11-21T06:30:13;40.88;;;20.60;;
23718;SDS011;43322;52.230;5.702;2023-11-21T06:32:40;54.45;;;23.75;;
23718;SDS011;43322;52.230;5.702;2023-11-21T06:35:10;52.80;;;23.55;;
23718;SDS011;43322;52.230;5.702;2023-11-21T06:37:38;55.10;;;23.00;;
23718;SDS011;43322;52.230;5.702;2023-11-21T06:40:05;59.92;;;25.02;;
23718;SDS011;43322;52.230;5.702;2023-11-21T06:42:36;49.88;;;23.65;;
23718;SDS011;43322;52.230;5.702;2023-11-21T06:45:03;49.67;;;23.60;;
23718;SDS011;43322;52.230;5.702;2023-11-21T06:47:31;47.33;;;21.92;;
23718;SDS011;43322;52.230;5.702;2023-11-21T06:49:58;44.05;;;21.17;;
23718;SDS011;43322;52.230;5.702;2023-11-21T06:52:25;39.72;;;22.30;;
23718;SDS011;43322;52.230;5.702;2023-11-21T06:54:52;40.33;;;22.33;;
23718;SDS011;43322;52.230;5.702;2023-11-21T06:57:19;51.47;;;23.67;;
23718;SDS011;43322;52.230;5.702;2023-11-21T06:59:48;41.70;;;21.38;;
23718;SDS011;43322;52.230;5.702;2023-11-21T07:02:15;40.20;;;22.73;;
23718;SDS011;43322;52.230;5.702;2023-11-21T07:04:43;38.25;;;21.23;;
23718;SDS011;43322;52.230;5.702;2023-11-21T07:07:10;34.35;;;20.35;;
23718;SDS011;43322;52.230;5.702;2023-11-21T07:09:37;31.30;;;19.08;;
23718;SDS011;43322;52.230;5.702;2023-11-21T07:12:03;31.00;;;19.35;;
23718;SDS011;43322;52.230;5.702;2023-11-21T07:14:32;34.92;;;19.23;;
23718;SDS011;43322;52.230;5.702;2023-11-21T07:17:00;31.92;;;19.83;;
23718;SDS011;43322;52.230;5.702;2023-11-21T07:19:27;29.42;;;18.33;;
23718;SDS011;43322;52.230;5.702;2023-11-21T07:21:54;31.70;;;20.73;;
23718;SDS011;43322;52.230;5.702;2023-11-21T07:24:21;27.73;;;17.75;;
23718;SDS011;43322;52.230;5.702;2023-11-21T07:26:48;31.23;;;19.17;;
23718;SDS011;43322;52.230;5.702;2023-11-21T07:29:15;33.83;;;19.70;;
23718;SDS011;43322;52.230;5.702;2023-11-21T07:31:42;28.13;;;18.40;;
23718;SDS011;43322;52.230;5.702;2023-11-21T07:34:10;25.98;;;18.15;;
23718;SDS011;43322;52.230;5.702;2023-11-21T07:36:37;25.48;;;17.88;;
23718;SDS011;43322;52.230;5.702;2023-11-21T07:39:03;23.00;;;15.93;;
23718;SDS011;43322;52.230;5.702;2023-11-21T07:41:31;23.17;;;15.68;;
23718;SDS011;43322;52.230;5.702;2023-11-21T07:44:00;25.27;;;15.23;;
23718;SDS011;43322;52.230;5.702;2023-11-21T07:46:26;27.63;;;17.60;;
23718;SDS011;43322;52.230;5.702;2023-11-21T07:48:53;25.30;;;18.27;;
23718;SDS011;43322;52.230;5.702;2023-11-21T07:51:21;26.10;;;17.13;;
23718;SDS011;43322;52.230;5.702;2023-11-21T07:53:48;23.00;;;16.23;;
23718;SDS011;43322;52.230;5.702;2023-11-21T07:56:15;23.35;;;15.73;;
23718;SDS011;43322;52.230;5.702;2023-11-21T07:58:41;23.40;;;15.68;;
23718;SDS011;43322;52.230;5.702;2023-11-21T08:01:09;23.40;;;16.00;;
23718;SDS011;43322;52.230;5.702;2023-11-21T08:03:36;22.27;;;15.90;;
23718;SDS011;43322;52.230;5.702;2023-11-21T08:06:03;28.17;;;20.13;;
23718;SDS011;43322;52.230;5.702;2023-11-21T08:08:32;25.70;;;16.88;;
23718;SDS011;43322;52.230;5.702;2023-11-21T08:10:58;32.13;;;19.55;;
23718;SDS011;43322;52.230;5.702;2023-11-21T08:13:27;31.02;;;18.45;;
23718;SDS011;43322;52.230;5.702;2023-11-21T08:15:55;29.90;;;18.33;;
23718;SDS011;43322;52.230;5.702;2023-11-21T08:18:26;30.58;;;19.15;;
23718;SDS011;43322;52.230;5.702;2023-11-21T08:20:53;32.53;;;19.20;;
23718;SDS011;43322;52.230;5.702;2023-11-21T08:23:21;34.33;;;18.55;;
23718;SDS011;43322;52.230;5.702;2023-11-21T08:25:52;37.80;;;20.52;;
23718;SDS011;43322;52.230;5.702;2023-11-21T08:28:19;30.88;;;19.25;;
23718;SDS011;43322;52.230;5.702;2023-11-21T08:30:48;33.80;;;20.00;;
23718;SDS011;43322;52.230;5.702;2023-11-21T08:33:15;31.60;;;19.77;;
23718;SDS011;43322;52.230;5.702;2023-11-21T08:35:41;39.03;;;21.02;;
23718;SDS011;43322;52.230;5.702;2023-11-21T08:38:08;34.92;;;20.42;;
23718;SDS011;43322;52.230;5.702;2023-11-21T08:40:35;36.53;;;20.73;;
23718;SDS011;43322;52.230;5.702;2023-11-21T08:43:04;35.88;;;19.67;;
23718;SDS011;43322;52.230;5.702;2023-11-21T08:45:30;39.88;;;22.30;;
23718;SDS011;43322;52.230;5.702;2023-11-21T08:47:59;56.17;;;22.45;;
23718;SDS011;43322;52.230;5.702;2023-11-21T08:50:25;54.67;;;25.80;;
23718;SDS011;43322;52.230;5.702;2023-11-21T08:52:52;50.83;;;23.70;;
23718;SDS011;43322;52.230;5.702;2023-11-21T08:55:19;44.63;;;22.90;;
23718;SDS011;43322;52.230;5.702;2023-11-21T08:57:46;47.50;;;24.15;;
23718;SDS011;43322;52.230;5.702;2023-11-21T09:00:14;51.67;;;24.50;;
23718;SDS011;43322;52.230;5.702;2023-11-21T09:02:42;53.22;;;25.08;;
23718;SDS011;43322;52.230;5.702;2023-11-21T09:05:09;47.85;;;22.67;;
23718;SDS011;43322;52.230;5.702;2023-11-21T09:07:38;58.72;;;25.17;;
23718;SDS011;43322;52.230;5.702;2023-11-21T09:10:06;48.65;;;23.33;;
23718;SDS011;43322;52.230;5.702;2023-11-21T09:12:34;53.92;;;24.70;;
23718;SDS011;43322;52.230;5.702;2023-11-21T09:15:02;57.55;;;25.27;;
23718;SDS011;43322;52.230;5.702;2023-11-21T09:17:31;56.53;;;24.60;;
23718;SDS011;43322;52.230;5.702;2023-11-21T09:19:59;51.58;;;24.15;;
23718;SDS011;43322;52.230;5.702;2023-11-21T09:22:25;49.80;;;22.92;;
23718;SDS011;43322;52.230;5.702;2023-11-21T09:24:54;47.30;;;22.38;;
23718;SDS011;43322;52.230;5.702;2023-11-21T09:27:23;50.45;;;23.50;;
23718;SDS011;43322;52.230;5.702;2023-11-21T09:29:50;50.33;;;22.95;;
23718;SDS011;43322;52.230;5.702;2023-11-21T09:32:17;46.15;;;23.55;;
23718;SDS011;43322;52.230;5.702;2023-11-21T09:34:47;43.45;;;22.30;;
23718;SDS011;43322;52.230;5.702;2023-11-21T09:37:14;53.60;;;26.30;;
23718;SDS011;43322;52.230;5.702;2023-11-21T09:39:41;50.78;;;24.10;;
23718;SDS011;43322;52.230;5.702;2023-11-21T09:42:08;43.15;;;22.27;;
23718;SDS011;43322;52.230;5.702;2023-11-21T09:44:40;46.92;;;22.83;;
23718;SDS011;43322;52.230;5.702;2023-11-21T09:47:14;48.03;;;24.17;;
23718;SDS011;43322;52.230;5.702;2023-11-21T09:49:42;44.53;;;20.55;;
23718;SDS011;43322;52.230;5.702;2023-11-21T09:52:14;45.88;;;20.80;;
23718;SDS011;43322;52.230;5.702;2023-11-21T09:54:50;51.50;;;21.88;;
23718;SDS011;43322;52.230;5.702;2023-11-21T09:57:19;46.83;;;21.67;;
23718;SDS011;43322;52.230;5.702;2023-11-21T09:59:46;54.42;;;22.20;;
23718;SDS011;43322;52.230;5.702;2023-11-21T10:02:15;44.25;;;20.00;;
23718;SDS011;43322;52.230;5.702;2023-11-21T10:04:43;42.40;;;19.38;;
23718;SDS011;43322;52.230;5.702;2023-11-21T10:07:10;49.05;;;21.00;;
23718;SDS011;43322;52.230;5.702;2023-11-21T10:09:41;49.58;;;21.98;;
23718;SDS011;43322;52.230;5.702;2023-11-21T10:12:08;47.03;;;22.40;;
23718;SDS011;43322;52.230;5.702;2023-11-21T10:14:37;62.88;;;26.67;;
23718;SDS011;43322;52.230;5.702;2023-11-21T10:17:09;47.00;;;20.55;;
23718;SDS011;43322;52.230;5.702;2023-11-21T10:19:38;56.33;;;23.27;;
23718;SDS011;43322;52.230;5.702;2023-11-21T10:22:05;45.47;;;19.75;;
23718;SDS011;43322;52.230;5.702;2023-11-21T10:24:33;47.10;;;19.83;;
23718;SDS011;43322;52.230;5.702;2023-11-21T10:27:02;43.58;;;18.70;;
23718;SDS011;43322;52.230;5.702;2023-11-21T10:29:29;53.47;;;19.70;;
23718;SDS011;43322;52.230;5.702;2023-11-21T10:32:00;43.38;;;18.05;;
23718;SDS011;43322;52.230;5.702;2023-11-21T10:34:28;47.85;;;19.77;;
23718;SDS011;43322;52.230;5.702;2023-11-21T10:36:55;51.10;;;19.40;;
23718;SDS011;43322;52.230;5.702;2023-11-21T10:39:23;44.33;;;17.88;;
23718;SDS011;43322;52.230;5.702;2023-11-21T10:41:54;45.25;;;18.40;;
23718;SDS011;43322;52.230;5.702;2023-11-21T10:44:22;40.28;;;16.73;;
23718;SDS011;43322;52.230;5.702;2023-11-21T10:46:51;44.83;;;16.65;;
23718;SDS011;43322;52.230;5.702;2023-11-21T10:49:24;38.65;;;16.02;;
23718;SDS011;43322;52.230;5.702;2023-11-21T10:51:52;43.33;;;16.17;;
23718;SDS011;43322;52.230;5.702;2023-11-21T10:54:21;54.90;;;21.40;;
23718;SDS011;43322;52.230;5.702;2023-11-21T10:56:48;47.97;;;18.17;;
23718;SDS011;43322;52.230;5.702;2023-11-21T10:59:17;41.53;;;17.17;;
23718;SDS011;43322;52.230;5.702;2023-11-21T11:01:47;33.47;;;15.00;;
23718;SDS011;43322;52.230;5.702;2023-11-21T11:04:16;32.72;;;14.05;;
23718;SDS011;43322;52.230;5.702;2023-11-21T11:06:45;64.85;;;28.55;;
23718;SDS011;43322;52.230;5.702;2023-11-21T11:09:20;33.03;;;14.63;;
23718;SDS011;43322;52.230;5.702;2023-11-21T11:11:46;34.15;;;14.40;;
23718;SDS011;43322;52.230;5.702;2023-11-21T11:14:14;37.72;;;15.50;;
23718;SDS011;43322;52.230;5.702;2023-11-21T11:16:41;36.17;;;16.25;;
23718;SDS011;43322;52.230;5.702;2023-11-21T11:19:11;36.45;;;17.00;;
23718;SDS011;43322;52.230;5.702;2023-11-21T11:27:34;44.22;;;17.38;;
23718;SDS011;43322;52.230;5.702;2023-11-21T11:30:10;42.80;;;17.88;;
23718;SDS011;43322;52.230;5.702;2023-11-21T11:32:47;52.63;;;22.58;;
23718;SDS011;43322;52.230;5.702;2023-11-21T11:35:24;45.08;;;18.77;;
23718;SDS011;43322;52.230;5.702;2023-11-21T11:37:59;42.33;;;18.10;;
23718;SDS011;43322;52.230;5.702;2023-11-21T11:40:25;46.75;;;18.88;;
23718;SDS011;43322;52.230;5.702;2023-11-21T11:43:05;44.00;;;19.63;;
23718;SDS011;43322;52.230;5.702;2023-11-21T11:45:33;44.75;;;19.48;;
23718;SDS011;43322;52.230;5.702;2023-11-21T11:48:02;45.05;;;19.13;;
23718;SDS011;43322;52.230;5.702;2023-11-21T11:50:33;39.33;;;18.67;;
23718;SDS011;43322;52.230;5.702;2023-11-21T11:53:11;39.83;;;18.98;;
23718;SDS011;43322;52.230;5.702;2023-11-21T11:55:39;42.83;;;18.63;;
23718;SDS011;43322;52.230;5.702;2023-11-21T11:58:06;40.88;;;19.67;;
23718;SDS011;43322;52.230;5.702;2023-11-21T12:00:33;40.28;;;19.33;;
23718;SDS011;43322;52.230;5.702;2023-11-21T12:03:02;40.33;;;19.65;;
23718;SDS011;43322;52.230;5.702;2023-11-21T12:05:31;36.78;;;19.23;;
23718;SDS011;43322;52.230;5.702;2023-11-21T12:08:01;39.85;;;19.13;;
23718;SDS011;43322;52.230;5.702;2023-11-21T12:10:30;45.05;;;20.08;;
23718;SDS011;43322;52.230;5.702;2023-11-21T12:12:58;34.72;;;19.25;;
23718;SDS011;43322;52.230;5.702;2023-11-21T12:15:26;41.05;;;19.80;;
23718;SDS011;43322;52.230;5.702;2023-11-21T12:17:54;40.50;;;19.08;;
23718;SDS011;43322;52.230;5.702;2023-11-21T12:20:21;43.25;;;19.45;;
23718;SDS011;43322;52.230;5.702;2023-11-21T12:22:51;43.88;;;20.40;;
23718;SDS011;43322;52.230;5.702;2023-11-21T12:25:19;40.72;;;20.33;;
23718;SDS011;43322;52.230;5.702;2023-11-21T12:27:47;40.55;;;19.25;;
23718;SDS011;43322;52.230;5.702;2023-11-21T12:30:16;39.30;;;18.45;;
23718;SDS011;43322;52.230;5.702;2023-11-21T12:32:44;39.30;;;19.00;;
23718;SDS011;43322;52.230;5.702;2023-11-21T12:35:12;40.22;;;19.15;;
23718;SDS011;43322;52.230;5.702;2023-11-21T12:37:40;41.97;;;17.70;;
23718;SDS011;43322;52.230;5.702;2023-11-21T12:40:10;37.45;;;18.52;;
23718;SDS011;43322;52.230;5.702;2023-11-21T12:42:40;37.38;;;17.40;;
23718;SDS011;43322;52.230;5.702;2023-11-21T12:45:18;33.53;;;15.25;;
23718;SDS011;43322;52.230;5.702;2023-11-21T12:47:46;26.85;;;14.73;;
23718;SDS011;43322;52.230;5.702;2023-11-21T12:50:14;19.58;;;10.70;;
23718;SDS011;43322;52.230;5.702;2023-11-21T12:52:44;25.63;;;10.95;;
23718;SDS011;43322;52.230;5.702;2023-11-21T12:55:14;18.92;;;8.77;;
23718;SDS011;43322;52.230;5.702;2023-11-21T12:57:42;15.82;;;8.05;;
23718;SDS011;43322;52.230;5.702;2023-11-21T13:00:10;14.18;;;7.57;;
23718;SDS011;43322;52.230;5.702;2023-11-21T13:02:50;11.25;;;6.45;;
23718;SDS011;43322;52.230;5.702;2023-11-21T13:05:23;14.70;;;7.60;;
23718;SDS011;43322;52.230;5.702;2023-11-21T13:07:50;15.77;;;7.47;;
23718;SDS011;43322;52.230;5.702;2023-11-21T13:10:20;16.63;;;7.85;;
23718;SDS011;43322;52.230;5.702;2023-11-21T13:12:50;17.27;;;8.77;;
23718;SDS011;43322;52.230;5.702;2023-11-21T13:15:18;18.67;;;8.77;;
23718;SDS011;43322;52.230;5.702;2023-11-21T13:17:46;17.73;;;9.20;;
23718;SDS011;43322;52.230;5.702;2023-11-21T13:20:13;18.08;;;8.88;;
23718;SDS011;43322;52.230;5.702;2023-11-21T13:22:46;20.33;;;9.70;;
23718;SDS011;43322;52.230;5.702;2023-11-21T13:25:14;19.20;;;9.48;;
23718;SDS011;43322;52.230;5.702;2023-11-21T13:27:44;24.10;;;10.23;;
23718;SDS011;43322;52.230;5.702;2023-11-21T13:30:11;20.65;;;10.35;;
23718;SDS011;43322;52.230;5.702;2023-11-21T13:32:41;19.65;;;10.90;;
23718;SDS011;43322;52.230;5.702;2023-11-21T13:35:08;17.65;;;10.38;;
23718;SDS011;43322;52.230;5.702;2023-11-21T13:37:46;19.75;;;10.80;;
23718;SDS011;43322;52.230;5.702;2023-11-21T13:40:16;18.98;;;10.98;;
23718;SDS011;43322;52.230;5.702;2023-11-21T13:42:49;19.67;;;10.95;;
23718;SDS011;43322;52.230;5.702;2023-11-21T13:45:18;26.98;;;11.82;;
23718;SDS011;43322;52.230;5.702;2023-11-21T13:47:47;20.38;;;12.05;;
23718;SDS011;43322;52.230;5.702;2023-11-21T13:50:16;24.02;;;13.50;;
23718;SDS011;43322;52.230;5.702;2023-11-21T13:52:47;23.92;;;12.20;;
23718;SDS011;43322;52.230;5.702;2023-11-21T13:55:15;25.45;;;13.68;;
23718;SDS011;43322;52.230;5.702;2023-11-21T13:57:43;25.25;;;14.05;;
23718;SDS011;43322;52.230;5.702;2023-11-21T14:00:16;23.60;;;12.98;;
23718;SDS011;43322;52.230;5.702;2023-11-21T14:02:57;25.67;;;14.10;;
23718;SDS011;43322;52.230;5.702;2023-11-21T14:05:25;25.48;;;13.40;;
23718;SDS011;43322;52.230;5.702;2023-11-21T14:07:54;25.10;;;13.68;;
23718;SDS011;43322;52.230;5.702;2023-11-21T14:10:27;29.80;;;14.43;;
23718;SDS011;43322;52.230;5.702;2023-11-21T14:13:01;30.35;;;15.43;;
23718;SDS011;43322;52.230;5.702;2023-11-21T14:15:30;37.35;;;16.05;;
23718;SDS011;43322;52.230;5.702;2023-11-21T14:17:58;27.33;;;15.23;;
23718;SDS011;43322;52.230;5.702;2023-11-21T14:20:27;31.20;;;16.83;;
23718;SDS011;43322;52.230;5.702;2023-11-21T14:22:55;36.05;;;17.48;;
23718;SDS011;43322;52.230;5.702;2023-11-21T14:25:22;32.20;;;17.02;;
23718;SDS011;43322;52.230;5.702;2023-11-21T14:27:49;34.38;;;18.40;;
23718;SDS011;43322;52.230;5.702;2023-11-21T14:30:15;40.65;;;19.02;;
23718;SDS011;43322;52.230;5.702;2023-11-21T14:32:46;33.15;;;18.77;;